Pontalina, Brazil
Current Conditions -  °F | °C
As of 1:00 AM on Wednesday 22 Oct 2014 (Local Time) from SBGO Reporting Station
Scattered Clouds Scattered Clouds  
Wind Chill: 77°   Ceiling: Unl
Heat Index: 79°   Visibility: 6mi
Dew Point: 59°   Wind: 6mph
Humidity: 54%   Direction: 100°E
Pressure: 30"   Gusts: NA
Location:  17.53°S, 49.45°W
Report Text: SBGO 220300Z 10005KT 9999 FEW040TCU SCT080 25/15 Q1016
Loading
Personal Weather Stations






























Interactive Weather Map
Tropical Storm Tracking
New forecast layout! Learn more

10-Day Weather Forecast

Advertisements
Track Severe Weather on mobile